Terminal Aerodrome Forecast
Issued by NWS Anchorage, AK

Home | Current Version | Previous Version | Text Only | Print | Product List | Glossary On
Versions: 1 2 3 4 5 6 7 8 9 10 11 12 13 14
000
FTAK31 PANC 262335
TAFANC
TAF
PANC 262335Z 2700/2806 36009KT P6SM SCT070 SCT200
     FM272200 36006KT P6SM VCSH BKN070 OVC100=

USA.gov is the U.S. government's official web portal to all federal, state and local government web resources and services.